createdAt,value
2019-03-27T00:02:05.219Z,100.00
2019-03-27T00:04:53.280Z,100.00
2019-03-27T00:07:41.716Z,100.00
2019-03-27T00:10:30.764Z,100.00
2019-03-27T00:13:18.976Z,100.00
2019-03-27T00:16:07.447Z,100.00
2019-03-27T00:18:55.838Z,95.30
2019-03-27T00:21:44.336Z,93.90
2019-03-27T00:24:33.168Z,94.39
2019-03-27T00:27:21.381Z,94.24
2019-03-27T00:30:11.077Z,93.61
2019-03-27T00:32:59.568Z,92.74
2019-03-27T00:35:48.075Z,91.19
2019-03-27T00:38:36.984Z,91.40
2019-03-27T00:41:25.635Z,91.09
2019-03-27T00:44:13.825Z,90.88
2019-03-27T00:47:01.957Z,91.65
2019-03-27T00:49:49.861Z,91.70
2019-03-27T00:52:38.525Z,91.52
2019-03-27T00:55:26.991Z,92.19
2019-03-27T00:58:18.143Z,93.29
2019-03-27T01:01:14.318Z,93.02
2019-03-27T01:04:03.022Z,93.34
2019-03-27T01:06:51.512Z,94.17
2019-03-27T01:09:39.910Z,96.34
2019-03-27T01:12:28.629Z,97.37
2019-03-27T01:15:17.456Z,98.48
2019-03-27T01:18:06.197Z,97.99
2019-03-27T01:20:54.230Z,98.16
2019-03-27T01:23:42.724Z,99.23
2019-03-27T01:26:31.070Z,98.59
2019-03-27T01:29:19.139Z,97.97
2019-03-27T01:32:07.617Z,98.74
2019-03-27T01:34:55.759Z,97.59
2019-03-27T01:37:44.682Z,97.72
2019-03-27T01:40:33.650Z,98.00
2019-03-27T01:43:22.787Z,96.25
2019-03-27T01:46:11.575Z,96.11
2019-03-27T01:48:59.991Z,96.11
2019-03-27T01:51:48.711Z,98.06
2019-03-27T01:54:37.086Z,95.72
2019-03-27T01:57:25.142Z,93.38
2019-03-27T02:00:14.039Z,90.54
2019-03-27T02:03:02.561Z,87.84
2019-03-27T02:05:50.769Z,87.99
2019-03-27T02:08:39.349Z,88.34
2019-03-27T02:11:28.045Z,89.04
2019-03-27T02:14:17.727Z,89.23
2019-03-27T02:17:06.828Z,89.88
2019-03-27T02:19:55.939Z,87.43
2019-03-27T02:22:44.188Z,86.42
2019-03-27T02:25:33.230Z,87.14
2019-03-27T02:28:21.896Z,85.76
2019-03-27T02:31:10.178Z,87.24
2019-03-27T02:33:58.774Z,88.78
2019-03-27T02:36:46.904Z,90.43
2019-03-27T02:39:35.711Z,90.41
2019-03-27T02:42:24.596Z,89.25
2019-03-27T02:45:13.348Z,87.98
2019-03-27T02:48:01.952Z,89.89
2019-03-27T02:50:50.430Z,88.68
2019-03-27T02:53:39.171Z,89.61
2019-03-27T02:56:28.239Z,89.35
2019-03-27T02:59:17.424Z,89.57
2019-03-27T03:02:06.378Z,88.73
2019-03-27T03:04:54.854Z,87.27
2019-03-27T03:07:43.342Z,86.99
2019-03-27T03:10:32.079Z,87.40
2019-03-27T03:13:21.094Z,87.18
2019-03-27T03:16:09.152Z,88.76
2019-03-27T03:18:57.222Z,89.93
2019-03-27T03:21:46.187Z,87.86
2019-03-27T03:24:34.971Z,88.32
2019-03-27T03:27:22.947Z,87.37
2019-03-27T03:30:11.826Z,86.73
2019-03-27T03:33:00.612Z,86.46
2019-03-27T03:35:50.141Z,86.10
2019-03-27T03:38:38.493Z,86.88
2019-03-27T03:41:27.488Z,88.06
2019-03-27T03:44:16.046Z,88.04
2019-03-27T03:47:04.507Z,88.26
2019-03-27T03:49:52.714Z,87.73
2019-03-27T03:52:45.575Z,88.55
2019-03-27T03:55:32.876Z,86.90
2019-03-27T03:58:22.737Z,87.19
2019-03-27T04:01:11.009Z,87.11
2019-03-27T04:03:59.010Z,87.37
2019-03-27T04:06:48.631Z,87.36
2019-03-27T04:09:37.341Z,86.65
2019-03-27T04:12:25.640Z,86.02
2019-03-27T04:15:14.325Z,87.21
2019-03-27T04:18:02.973Z,86.90
2019-03-27T04:20:51.408Z,87.04
2019-03-27T04:23:40.296Z,87.42
2019-03-27T04:26:33.426Z,86.89
2019-03-27T04:29:19.857Z,87.47
2019-03-27T04:32:09.421Z,86.83
2019-03-27T04:34:58.112Z,86.81
2019-03-27T04:37:46.211Z,88.05
2019-03-27T04:40:34.710Z,87.14
2019-03-27T04:43:24.868Z,86.21
2019-03-27T04:46:13.319Z,86.80
2019-03-27T04:49:02.039Z,85.84
2019-03-27T04:51:50.994Z,85.42
2019-03-27T04:54:39.833Z,84.23
2019-03-27T04:57:28.963Z,84.60
2019-03-27T05:00:17.910Z,81.97
2019-03-27T05:03:06.668Z,81.59
2019-03-27T05:05:55.014Z,81.58
2019-03-27T05:08:43.411Z,80.56
2019-03-27T05:11:31.964Z,80.08
2019-03-27T05:14:21.514Z,77.46
2019-03-27T05:17:09.531Z,77.36
2019-03-27T05:19:59.168Z,78.40
2019-03-27T05:22:47.472Z,78.57
2019-03-27T05:25:36.549Z,77.54
2019-03-27T05:28:25.109Z,77.05
2019-03-27T05:31:13.667Z,76.52
2019-03-27T05:34:01.690Z,76.89
2019-03-27T05:36:50.211Z,76.48
2019-03-27T05:39:39.286Z,76.54
2019-03-27T05:42:29.004Z,76.83
2019-03-27T05:45:17.295Z,75.08
2019-03-27T05:48:06.331Z,74.48
2019-03-27T05:50:54.711Z,73.28
2019-03-27T05:53:43.698Z,73.60
2019-03-27T05:56:32.468Z,72.48
2019-03-27T05:59:21.185Z,72.53
2019-03-27T06:02:09.778Z,72.06
2019-03-27T06:04:58.799Z,73.24
2019-03-27T06:07:47.693Z,72.40
2019-03-27T06:10:36.019Z,71.30
2019-03-27T06:13:24.707Z,71.04
2019-03-27T06:16:13.270Z,69.87
2019-03-27T06:19:01.739Z,69.38
2019-03-27T06:21:50.678Z,68.81
2019-03-27T06:24:39.078Z,67.78
2019-03-27T06:27:27.707Z,67.27
2019-03-27T06:30:15.891Z,67.04
2019-03-27T06:33:04.304Z,66.82
2019-03-27T06:35:52.218Z,67.13
2019-03-27T06:38:42.027Z,65.46
2019-03-27T06:41:30.082Z,66.06
2019-03-27T06:44:19.027Z,65.16
2019-03-27T06:47:08.556Z,65.16
2019-03-27T06:49:58.859Z,66.38
2019-03-27T06:52:47.023Z,65.67
2019-03-27T06:55:35.565Z,66.57
2019-03-27T06:58:24.267Z,63.36
2019-03-27T07:01:12.722Z,64.29
2019-03-27T07:04:10.481Z,62.81
2019-03-27T07:06:51.775Z,64.55
2019-03-27T07:09:42.386Z,63.57
2019-03-27T07:12:29.700Z,62.81
2019-03-27T07:15:18.841Z,62.47
2019-03-27T07:18:07.627Z,63.95
2019-03-27T07:20:57.295Z,62.29
2019-03-27T07:23:45.744Z,62.22
2019-03-27T07:26:34.190Z,62.68
2019-03-27T07:29:22.319Z,62.37
2019-03-27T07:32:10.677Z,62.13
2019-03-27T07:34:59.286Z,61.55
2019-03-27T07:37:47.771Z,60.83
2019-03-27T07:40:37.169Z,60.86
2019-03-27T07:43:25.886Z,60.42
2019-03-27T07:46:14.416Z,58.22
2019-03-27T07:49:03.905Z,61.12
2019-03-27T07:51:52.703Z,61.72
2019-03-27T07:54:41.607Z,60.12
2019-03-27T07:57:30.082Z,57.24
2019-03-27T08:00:19.722Z,57.92
2019-03-27T08:03:08.358Z,58.10
2019-03-27T08:05:57.227Z,56.50
2019-03-27T08:08:45.348Z,57.38
2019-03-27T08:11:33.531Z,57.49
2019-03-27T08:14:22.176Z,56.85
2019-03-27T08:17:10.531Z,54.72
2019-03-27T08:19:59.020Z,56.62
2019-03-27T08:22:47.586Z,55.93
2019-03-27T08:25:36.327Z,54.62
2019-03-27T08:28:25.100Z,56.27
2019-03-27T08:31:13.883Z,57.65
2019-03-27T08:34:02.339Z,59.84
2019-03-27T08:36:51.232Z,60.70
2019-03-27T08:39:39.523Z,61.32
2019-03-27T08:42:28.465Z,61.28
2019-03-27T08:45:17.074Z,61.62
2019-03-27T08:48:05.739Z,62.51
2019-03-27T08:51:01.639Z,61.06
2019-03-27T08:53:50.211Z,59.59
2019-03-27T08:56:38.887Z,58.41
2019-03-27T08:59:27.293Z,58.71
2019-03-27T09:02:16.035Z,58.92
2019-03-27T09:05:05.723Z,55.62
2019-03-27T09:07:54.445Z,53.62
2019-03-27T09:10:43.488Z,53.61
2019-03-27T09:13:32.330Z,54.92
2019-03-27T09:16:21.161Z,55.31
2019-03-27T09:19:09.710Z,56.06
2019-03-27T09:21:58.415Z,56.65
2019-03-27T09:24:46.507Z,56.76
2019-03-27T09:27:34.978Z,57.44
2019-03-27T09:30:23.936Z,57.04
2019-03-27T09:33:12.817Z,55.10
2019-03-27T09:36:00.925Z,54.58
2019-03-27T09:38:49.823Z,54.24
2019-03-27T09:41:38.775Z,56.23
2019-03-27T09:44:27.735Z,54.25
2019-03-27T09:47:16.281Z,53.44
2019-03-27T09:50:06.631Z,53.11
2019-03-27T09:52:54.790Z,54.18
2019-03-27T09:55:43.067Z,53.02
2019-03-27T09:58:31.569Z,54.01
2019-03-27T10:01:21.636Z,53.33
2019-03-27T10:04:10.431Z,54.20
2019-03-27T10:06:59.022Z,53.95
2019-03-27T10:09:50.247Z,51.75
2019-03-27T10:12:37.286Z,49.27
2019-03-27T10:15:26.148Z,50.65
2019-03-27T10:18:14.503Z,51.44
2019-03-27T10:21:04.266Z,51.67
2019-03-27T10:23:52.774Z,51.00
2019-03-27T10:26:42.714Z,51.25
2019-03-27T10:29:30.162Z,52.29
2019-03-27T10:32:18.961Z,55.95
2019-03-27T10:35:07.806Z,57.33
2019-03-27T10:37:56.990Z,53.43
2019-03-27T10:40:45.370Z,55.30
2019-03-27T10:43:33.391Z,50.96
2019-03-27T10:46:22.516Z,48.30
2019-03-27T10:49:10.910Z,49.34
2019-03-27T10:51:59.121Z,48.74
2019-03-27T10:54:51.029Z,49.21
2019-03-27T10:57:39.580Z,46.56
2019-03-27T11:00:28.291Z,46.59
2019-03-27T11:03:17.202Z,48.43
2019-03-27T11:06:05.239Z,45.49
2019-03-27T11:08:54.388Z,49.07
2019-03-27T11:11:42.408Z,51.96
2019-03-27T11:14:37.716Z,52.17
2019-03-27T11:17:21.261Z,50.47
2019-03-27T11:20:11.182Z,50.57
2019-03-27T11:22:59.894Z,48.55
2019-03-27T11:25:48.279Z,49.20
2019-03-27T11:28:36.623Z,49.20
2019-03-27T11:31:25.253Z,48.64
2019-03-27T11:34:14.038Z,45.29
2019-03-27T11:37:02.496Z,43.30
2019-03-27T11:39:53.785Z,43.80
2019-03-27T11:42:42.304Z,45.30
2019-03-27T11:45:31.192Z,46.44
2019-03-27T11:48:19.789Z,46.21
2019-03-27T11:51:08.187Z,46.54
2019-03-27T11:53:56.370Z,47.28
2019-03-27T11:56:44.681Z,44.62
2019-03-27T11:59:33.300Z,46.05
2019-03-27T12:02:22.114Z,46.05
2019-03-27T12:05:10.686Z,48.92
2019-03-27T12:07:59.351Z,49.05
2019-03-27T12:10:48.106Z,51.00
2019-03-27T12:13:36.099Z,51.56
2019-03-27T12:16:24.567Z,51.91
2019-03-27T12:19:12.992Z,51.34
2019-03-27T12:22:00.991Z,50.36
2019-03-27T12:24:50.124Z,49.97
2019-03-27T12:27:38.699Z,47.12
2019-03-27T12:30:27.636Z,45.29
2019-03-27T12:33:16.309Z,44.82
2019-03-27T12:36:06.523Z,45.16
2019-03-27T12:38:55.282Z,43.99
2019-03-27T12:41:43.813Z,47.60
2019-03-27T12:44:31.947Z,49.76
2019-03-27T12:47:20.276Z,50.17
2019-03-27T12:50:09.082Z,52.47
2019-03-27T12:52:58.036Z,51.07
2019-03-27T12:55:46.723Z,51.17
2019-03-27T12:58:36.156Z,51.97
2019-03-27T13:01:24.654Z,53.86
2019-03-27T13:04:13.084Z,54.06
2019-03-27T13:07:01.307Z,55.18
2019-03-27T13:09:49.698Z,55.34
2019-03-27T13:12:19.894Z,53.29
2019-03-27T13:14:50.625Z,54.26
2019-03-27T13:17:20.808Z,53.88
2019-03-27T13:19:50.948Z,53.77
2019-03-27T13:22:21.045Z,54.17
2019-03-27T13:24:51.150Z,54.68
2019-03-27T13:27:21.330Z,51.44
2019-03-27T13:29:51.826Z,53.62
2019-03-27T13:32:21.966Z,51.67
2019-03-27T13:34:52.042Z,50.30
2019-03-27T13:37:22.766Z,51.05
2019-03-27T13:39:52.915Z,52.30
2019-03-27T13:42:23.536Z,52.79
2019-03-27T13:44:53.968Z,52.05
2019-03-27T13:47:24.164Z,51.04
2019-03-27T13:49:57.906Z,51.44
2019-03-27T13:52:27.998Z,50.03
2019-03-27T13:54:58.143Z,51.47
2019-03-27T13:57:28.607Z,52.75
2019-03-27T13:59:58.726Z,53.84
2019-03-27T14:02:28.910Z,54.27
2019-03-27T14:04:59.383Z,53.96
2019-03-27T14:07:29.487Z,53.05
2019-03-27T14:09:59.634Z,53.24
2019-03-27T14:12:29.732Z,53.77
2019-03-27T14:14:59.823Z,54.22
2019-03-27T14:17:30.908Z,54.90
2019-03-27T14:20:01.016Z,54.78
2019-03-27T14:22:31.111Z,55.86
2019-03-27T14:25:01.248Z,54.75
2019-03-27T14:27:31.330Z,57.20
2019-03-27T14:30:01.735Z,58.03
2019-03-27T14:32:31.941Z,58.07
2019-03-27T14:35:02.861Z,58.65
2019-03-27T14:37:33.310Z,58.35
2019-03-27T14:40:03.455Z,58.10
2019-03-27T14:42:33.969Z,59.02
2019-03-27T14:45:04.617Z,59.07
2019-03-27T14:47:34.713Z,59.46
2019-03-27T14:50:05.264Z,59.89
2019-03-27T14:52:35.465Z,61.55
2019-03-27T14:55:06.020Z,61.50
2019-03-27T14:57:36.493Z,61.74
2019-03-27T15:00:08.023Z,61.98
2019-03-27T15:02:38.135Z,62.55
2019-03-27T15:05:09.849Z,64.00
2019-03-27T15:07:40.039Z,64.87
2019-03-27T15:10:11.331Z,64.41
2019-03-27T15:12:41.479Z,64.88
2019-03-27T15:15:12.484Z,65.10
2019-03-27T15:17:43.148Z,65.05
2019-03-27T15:20:14.805Z,65.09
2019-03-27T15:22:44.924Z,65.47
2019-03-27T15:25:15.447Z,65.33
2019-03-27T15:27:45.847Z,65.75
2019-03-27T15:30:16.601Z,65.97
2019-03-27T15:32:46.680Z,65.94
2019-03-27T15:35:17.295Z,65.93
2019-03-27T15:37:47.587Z,65.95
2019-03-27T15:40:19.231Z,66.03
2019-03-27T15:42:49.791Z,65.87
2019-03-27T15:45:20.029Z,65.24
2019-03-27T15:47:50.648Z,65.95
2019-03-27T15:50:21.183Z,66.15
2019-03-27T15:52:51.298Z,65.91
2019-03-27T15:55:22.419Z,65.72
2019-03-27T15:57:52.610Z,65.77
2019-03-27T16:00:23.830Z,66.24
2019-03-27T16:02:54.882Z,66.87
2019-03-27T16:05:26.087Z,67.24
2019-03-27T16:07:56.204Z,67.58
2019-03-27T16:10:26.878Z,68.49
2019-03-27T16:12:56.971Z,71.05
2019-03-27T16:15:27.506Z,67.59
2019-03-27T16:17:57.677Z,70.41
2019-03-27T16:20:27.768Z,69.36
2019-03-27T16:22:58.554Z,69.42
2019-03-27T16:25:30.483Z,69.92
2019-03-27T16:28:00.573Z,70.59
2019-03-27T16:30:30.682Z,70.03
2019-03-27T16:33:00.892Z,70.59
2019-03-27T16:35:30.990Z,71.05
2019-03-27T16:38:01.080Z,72.07
2019-03-27T16:40:44.426Z,71.85
2019-03-27T16:43:15.911Z,72.00
2019-03-27T16:45:46.118Z,71.94
2019-03-27T16:48:16.794Z,72.86
2019-03-27T16:50:46.889Z,72.64
2019-03-27T16:53:17.030Z,72.43
2019-03-27T16:55:47.167Z,73.23
2019-03-27T16:58:17.307Z,71.80
2019-03-27T17:00:47.499Z,73.13
2019-03-27T17:03:18.403Z,72.93
2019-03-27T17:05:54.306Z,74.68
2019-03-27T17:08:20.219Z,74.48
2019-03-27T17:10:50.348Z,74.63
2019-03-27T17:13:21.254Z,75.52
2019-03-27T17:15:51.383Z,76.51
2019-03-27T17:18:21.968Z,75.92
2019-03-27T17:20:52.061Z,76.67
2019-03-27T17:23:22.159Z,76.98
2019-03-27T17:25:52.402Z,78.20
2019-03-27T17:28:22.864Z,77.31
2019-03-27T17:30:52.955Z,77.53
2019-03-27T17:33:23.159Z,78.10
2019-03-27T17:35:53.235Z,78.51
2019-03-27T17:38:23.897Z,78.97
2019-03-27T17:40:55.379Z,79.83
2019-03-27T17:43:25.476Z,80.06
2019-03-27T17:45:55.560Z,79.83
2019-03-27T17:48:25.739Z,81.43
2019-03-27T17:50:55.837Z,82.50
2019-03-27T17:53:31.672Z,83.61
2019-03-27T17:55:58.027Z,82.38
2019-03-27T17:58:28.117Z,82.40
2019-03-27T18:01:01.258Z,81.55
2019-03-27T18:03:31.571Z,80.97
2019-03-27T18:06:04.337Z,80.54
2019-03-27T18:08:34.771Z,83.27
2019-03-27T18:11:08.033Z,83.03
2019-03-27T18:13:36.714Z,76.99
2019-03-27T18:16:06.790Z,78.75
2019-03-27T18:18:37.017Z,77.86
2019-03-27T18:21:07.579Z,77.46
2019-03-27T18:23:46.032Z,77.81
2019-03-27T18:26:09.419Z,78.48
2019-03-27T18:28:40.590Z,78.49
2019-03-27T18:31:11.087Z,77.34
2019-03-27T18:33:41.637Z,76.93
2019-03-27T18:36:14.779Z,79.82
2019-03-27T18:38:46.049Z,81.98
2019-03-27T18:41:16.473Z,83.23
2019-03-27T18:43:46.563Z,79.63
2019-03-27T18:46:16.670Z,79.29
2019-03-27T18:48:46.877Z,73.94
2019-03-27T18:51:16.975Z,73.23
2019-03-27T18:53:58.909Z,73.53
2019-03-27T18:56:18.819Z,76.30
2019-03-27T18:58:49.337Z,79.75
2019-03-27T19:01:19.801Z,82.21
2019-03-27T19:03:50.863Z,84.30
2019-03-27T19:06:24.885Z,83.07
2019-03-27T19:08:55.006Z,86.16
2019-03-27T19:11:25.199Z,84.53
2019-03-27T19:13:55.290Z,85.82
2019-03-27T19:16:25.807Z,87.86
2019-03-27T19:18:56.350Z,87.76
2019-03-27T19:21:26.546Z,88.67
2019-03-27T19:23:57.156Z,89.27
2019-03-27T19:26:28.302Z,88.73
2019-03-27T19:28:58.924Z,88.49
2019-03-27T19:31:29.464Z,89.06
2019-03-27T19:34:01.836Z,88.79
2019-03-27T19:36:31.956Z,89.33
2019-03-27T19:39:02.170Z,87.07
2019-03-27T19:41:32.343Z,86.02
2019-03-27T19:44:02.925Z,88.55
2019-03-27T19:46:33.136Z,88.34
2019-03-27T19:49:03.235Z,88.62
2019-03-27T19:51:33.317Z,88.06
2019-03-27T19:54:03.772Z,88.59
2019-03-27T19:56:33.858Z,87.39
2019-03-27T19:59:03.946Z,86.68
2019-03-27T20:01:34.630Z,86.23
2019-03-27T20:04:04.954Z,85.86
2019-03-27T20:06:35.062Z,86.09
2019-03-27T20:09:06.754Z,85.44
2019-03-27T20:11:37.361Z,84.38
2019-03-27T20:14:07.785Z,84.95
2019-03-27T20:16:38.425Z,85.14
2019-03-27T20:19:08.542Z,85.34
2019-03-27T20:21:43.418Z,84.24
2019-03-27T20:24:13.539Z,84.49
2019-03-27T20:26:43.712Z,84.71
2019-03-27T20:29:14.013Z,83.99
2019-03-27T20:31:44.114Z,82.81
2019-03-27T20:34:15.741Z,82.19
2019-03-27T20:36:46.362Z,82.79
2019-03-27T20:39:16.504Z,86.38
2019-03-27T20:41:47.209Z,85.90
2019-03-27T20:44:18.134Z,85.40
2019-03-27T20:46:48.383Z,85.71
2019-03-27T20:49:18.589Z,85.82
2019-03-27T20:51:48.981Z,85.81
2019-03-27T20:54:19.235Z,86.13
2019-03-27T20:56:49.687Z,86.65
2019-03-27T20:59:38.174Z,86.12
2019-03-27T21:02:27.102Z,86.25
2019-03-27T21:05:15.864Z,86.07
2019-03-27T21:08:04.385Z,86.50
2019-03-27T21:10:53.818Z,85.26
2019-03-27T21:13:42.428Z,84.24
2019-03-27T21:16:31.977Z,85.14
2019-03-27T21:19:20.114Z,86.92
2019-03-27T21:22:08.406Z,88.87
2019-03-27T21:25:08.166Z,90.51
2019-03-27T21:27:46.936Z,94.29
2019-03-27T21:30:35.510Z,94.80
2019-03-27T21:33:23.991Z,94.62
2019-03-27T21:36:11.872Z,94.72
2019-03-27T21:39:00.757Z,92.55
2019-03-27T21:41:51.490Z,91.73
2019-03-27T21:44:40.237Z,91.58
2019-03-27T21:47:28.706Z,91.00
2019-03-27T21:50:16.839Z,90.66
2019-03-27T21:53:05.769Z,89.80
2019-03-27T21:55:53.801Z,91.16
2019-03-27T21:58:42.537Z,90.17
2019-03-27T22:01:31.653Z,90.38
2019-03-27T22:04:20.443Z,90.14
2019-03-27T22:07:09.106Z,89.69
2019-03-27T22:10:08.954Z,88.92
2019-03-27T22:12:57.596Z,91.46
2019-03-27T22:15:49.490Z,89.65
2019-03-27T22:18:42.131Z,88.86
2019-03-27T22:21:34.027Z,86.42
2019-03-27T22:24:26.222Z,87.90
2019-03-27T22:27:14.618Z,87.86
2019-03-27T22:30:09.683Z,88.79
2019-03-27T22:33:05.495Z,89.61
2019-03-27T22:35:54.936Z,88.92
2019-03-27T22:38:44.038Z,89.39
2019-03-27T22:41:32.867Z,86.93
2019-03-27T22:44:24.082Z,89.04
2019-03-27T22:47:15.594Z,90.18
2019-03-27T22:50:09.370Z,90.57
2019-03-27T22:53:01.383Z,87.75
2019-03-27T22:55:58.415Z,84.24
2019-03-27T22:58:46.214Z,83.46
2019-03-27T23:01:40.691Z,82.61
2019-03-27T23:04:29.242Z,82.43
2019-03-27T23:07:17.095Z,84.86
2019-03-27T23:10:05.471Z,83.52
2019-03-27T23:12:54.353Z,87.19
2019-03-27T23:15:43.112Z,88.58
2019-03-27T23:18:31.879Z,92.92
2019-03-27T23:21:20.315Z,94.14
2019-03-27T23:24:09.510Z,96.38
2019-03-27T23:26:58.031Z,97.95
2019-03-27T23:29:46.479Z,96.56
2019-03-27T23:32:34.991Z,96.22
2019-03-27T23:35:23.612Z,95.03
2019-03-27T23:38:12.929Z,94.26
2019-03-27T23:41:01.614Z,95.45
2019-03-27T23:43:50.158Z,94.83
2019-03-27T23:46:38.465Z,94.66
2019-03-27T23:49:27.474Z,89.68
2019-03-27T23:52:16.903Z,86.17
2019-03-27T23:55:05.502Z,87.09
2019-03-27T23:57:54.040Z,86.91
